Time;durP1;ratioP1;P1;durP2;ratioP2;P2;SDS_P1;SDS_P2;PMS_P1;PMS_P2;Temp;Humidity;BMP_temperature;BMP_pressure;BME280_temperature;BME280_humidity;BME280_pressure;Samples;Min_cycle;Max_cycle;Signal;HPM_P1;HPM_P2
2023/10/29 00:00:33;;;;;;;;;;;11.70;58.20;;;7.00;100.00;94285.50;4981535;28;20348;-52
2023/10/29 00:02:59;;;;;;;;;;;11.60;58.20;;;7.02;100.00;94278.88;4983225;28;20295;-49
2023/10/29 00:05:25;;;;;;;;;;;11.60;58.20;;;7.00;100.00;94270.38;4986123;28;19921;-48
2023/10/29 00:07:51;;;;;;;;;;;11.60;58.20;;;6.97;100.00;94267.50;4985631;28;19910;-47
2023/10/29 00:10:17;;;;;;;;;;;11.60;58.20;;;6.97;100.00;94265.63;4986228;28;20622;-50
2023/10/29 00:12:43;;;;;;;;;;;11.60;58.40;;;6.93;100.00;94267.25;4985148;28;19965;-49
2023/10/29 00:15:10;;;;;;;;;;;11.50;58.20;;;6.96;100.00;94261.41;4975392;28;19980;-47
2023/10/29 00:17:36;;;;;;;;;;;11.50;58.30;;;6.95;100.00;94257.97;4990629;28;19909;-51
2023/10/29 00:20:06;;;;;;;;;;;11.50;58.30;;;6.89;100.00;94252.97;4981949;28;19916;-51
2023/10/29 00:22:32;;;;;;;;;;;11.50;58.30;;;6.83;100.00;94262.81;4977554;28;19921;-46
2023/10/29 00:24:58;;;;;;;;;;;11.40;58.30;;;6.76;100.00;94266.81;4987193;28;19913;-53
2023/10/29 00:27:24;;;;;;;;;;;11.40;58.40;;;6.75;100.00;94268.66;4978553;28;19910;-50
2023/10/29 00:29:50;;;;;;;;;;;11.40;58.40;;;6.70;100.00;94266.81;4984220;28;19909;-51
2023/10/29 00:32:18;;;;;;;;;;;11.30;58.40;;;6.65;100.00;94269.50;4972166;28;20380;-46
2023/10/29 00:34:46;;;;;;;;;;;11.30;58.50;;;6.56;100.00;94275.63;4982137;28;19944;-46
2023/10/29 00:37:12;;;;;;;;;;;11.30;58.50;;;6.54;100.00;94270.59;4981210;28;19910;-48
2023/10/29 00:39:40;;;;;;;;;;;11.30;58.60;;;6.52;100.00;94263.97;4980926;28;19928;-47
2023/10/29 00:42:06;;;;;;;;;;;11.20;58.50;;;6.50;100.00;94258.97;4990137;28;19909;-47
2023/10/29 00:44:32;;;;;;;;;;;11.20;58.60;;;6.47;100.00;94252.38;4961528;28;20288;-48
2023/10/29 00:46:58;;;;;;;;;;;11.20;59.20;;;6.43;100.00;94264.56;4987221;28;19914;-47
2023/10/29 00:49:24;;;;;;;;;;;11.10;58.60;;;6.44;100.00;94275.94;4972665;28;19947;-49
2023/10/29 00:54:20;;;;;;;;;;;11.10;58.80;;;6.43;100.00;94274.34;4986926;28;19921;-48
2023/10/29 00:56:46;;;;;;;;;;;11.10;58.90;;;6.37;100.00;94267.50;4990584;28;19976;-49
2023/10/29 00:59:13;;;;;;;;;;;11.10;58.90;;;6.41;100.00;94269.31;4988631;28;20004;-50
2023/10/29 01:01:38;;;;;;;;;;;11.00;58.80;;;6.35;100.00;94254.53;4990487;28;19913;-47
2023/10/29 01:04:05;;;;;;;;;;;11.00;58.90;;;6.37;100.00;94255.06;5008897;28;20007;-51
2023/10/29 01:06:33;;;;;;;;;;;11.00;58.90;;;6.32;100.00;94262.22;5015925;28;20288;-49
2023/10/29 01:08:59;;;;;;;;;;;11.00;59.00;;;6.33;100.00;94258.50;5019489;28;20018;-49
2023/10/29 01:11:25;;;;;;;;;;;11.00;59.10;;;6.31;100.00;94253.50;5014006;28;20352;-51
2023/10/29 01:13:51;;;;;;;;;;;10.90;59.10;;;6.27;100.00;94265.69;5011123;28;19962;-49
2023/10/29 01:16:16;;;;;;;;;;;10.90;59.70;;;6.22;100.00;94278.91;5021413;28;20382;-48
2023/10/29 01:18:42;;;;;;;;;;;10.90;59.10;;;6.26;100.00;94270.16;5016131;28;19983;-51
2023/10/29 01:21:09;;;;;;;;;;;10.90;59.20;;;6.26;100.00;94256.16;5021857;28;20003;-47
2023/10/29 01:23:35;;;;;;;;;;;10.90;59.20;;;6.26;100.00;94256.16;5015420;28;19921;-50
2023/10/29 01:26:01;;;;;;;;;;;10.90;59.20;;;6.22;100.00;94241.88;5007372;28;19919;-48
2023/10/29 01:28:27;;;;;;;;;;;10.90;59.30;;;6.26;100.00;94256.16;5001517;28;19910;-48
2023/10/29 01:30:53;;;;;;;;;;;10.90;59.30;;;6.24;100.00;94245.06;5001602;28;20443;-48
2023/10/29 01:33:19;;;;;;;;;;;10.90;59.40;;;6.32;100.00;94220.69;4998455;28;20003;-49
2023/10/29 01:35:46;;;;;;;;;;;10.90;59.40;;;6.39;100.00;94218.56;5016751;28;20394;-49
2023/10/29 01:38:11;;;;;;;;;;;10.90;59.50;;;6.44;100.00;94218.53;5000946;28;20359;-47
2023/10/29 01:40:37;;;;;;;;;;;10.90;59.50;;;6.42;100.00;94207.41;5006132;28;19978;-49
2023/10/29 01:43:03;;;;;;;;;;;10.90;59.40;;;6.37;100.00;94210.09;5005875;28;20314;-51
2023/10/29 01:45:28;;;;;;;;;;;11.00;59.40;;;6.51;100.00;94209.50;4996321;28;19917;-46
2023/10/29 01:47:54;;;;;;;;;;;11.00;59.60;;;6.57;100.00;94219.78;4997672;28;19918;-50
2023/10/29 01:50:20;;;;;;;;;;;11.00;59.50;;;6.53;100.00;94210.81;5007815;28;19909;-53
2023/10/29 01:52:46;;;;;;;;;;;11.00;59.40;;;6.45;100.00;94212.16;4992662;28;19972;-48
2023/10/29 01:55:11;;;;;;;;;;;11.00;59.30;;;6.42;100.00;94210.06;4983848;28;19910;-50
2023/10/29 01:57:37;;;;;;;;;;;11.00;59.30;;;6.34;100.00;94212.50;4994376;28;19909;-48
2023/10/29 02:00:06;;;;;;;;;;;11.00;59.30;;;6.28;100.00;94213.56;4996378;28;19917;-47
2023/10/29 02:02:32;;;;;;;;;;;10.90;59.30;;;6.24;100.00;94222.06;4986368;28;19909;-50
2023/10/29 02:04:58;;;;;;;;;;;10.90;59.20;;;6.15;100.00;94204.38;4983823;28;19913;-50
2023/10/29 02:07:24;;;;;;;;;;;10.90;59.20;;;6.12;100.00;94202.25;4996320;28;20434;-47
2023/10/29 02:09:50;;;;;;;;;;;10.80;59.20;;;6.11;100.00;94222.63;4984833;28;19909;-47
2023/10/29 02:12:16;;;;;;;;;;;10.80;59.20;;;6.07;100.00;94229.50;4988889;28;20016;-47
2023/10/29 02:14:41;;;;;;;;;;;10.80;59.30;;;6.00;100.00;94223.72;4987673;28;20383;-46
2023/10/29 02:17:07;;;;;;;;;;;10.70;59.20;;;6.00;100.00;94229.78;4987230;28;20356;-47
2023/10/29 02:19:33;;;;;;;;;;;10.70;59.40;;;5.97;100.00;94240.88;4995444;28;19990;-47
2023/10/29 02:21:59;;;;;;;;;;;10.60;59.40;;;5.91;100.00;94247.22;4989684;28;19910;-47
2023/10/29 02:24:24;;;;;;;;;;;10.60;59.40;;;5.85;100.00;94244.84;4981357;28;20388;-47
2023/10/29 02:26:50;;;;;;;;;;;10.60;59.50;;;5.82;100.00;94254.09;4994625;28;20395;-48
2023/10/29 02:29:16;;;;;;;;;;;10.50;59.50;;;5.82;100.00;94263.88;4993427;28;20288;-47
2023/10/29 02:31:42;;;;;;;;;;;10.50;59.50;;;5.83;100.00;94271.56;4985031;28;20364;-47
2023/10/29 02:34:08;;;;;;;;;;;10.50;59.60;;;5.83;100.00;94263.63;4990839;28;19916;-47
2023/10/29 02:36:34;;;;;;;;;;;10.50;59.70;;;5.85;100.00;94269.41;4987049;28;19955;-46
2023/10/29 02:38:59;;;;;;;;;;;10.50;59.70;;;5.88;100.00;94270.75;4992416;28;19940;-51
2023/10/29 02:41:25;;;;;;;;;;;10.50;59.80;;;5.88;100.00;94268.09;4981324;28;19937;-51
2023/10/29 02:43:51;;;;;;;;;;;10.50;59.80;;;5.87;100.00;94267.31;4991919;28;19909;-49
2023/10/29 02:46:17;;;;;;;;;;;10.50;59.80;;;5.84;100.00;94269.69;4986136;28;19913;-49
2023/10/29 02:48:42;;;;;;;;;;;10.50;59.70;;;5.80;100.00;94269.44;4991849;28;20295;-49
2023/10/29 02:51:12;;;;;;;;;;;10.50;59.70;;;5.80;100.00;94272.88;4994394;28;19930;-52
2023/10/29 02:53:39;;;;;;;;;;;10.50;59.70;;;5.73;100.00;94272.34;4995537;28;19929;-49
2023/10/29 02:56:05;;;;;;;;;;;10.50;59.70;;;5.77;100.00;94270.75;5008601;28;20006;-52
2023/10/29 02:58:31;;;;;;;;;;;10.40;59.80;;;5.75;100.00;94272.88;5015743;28;19921;-47
2023/10/29 03:01:08;;;;;;;;;;;10.40;59.80;;;5.68;100.00;94275.00;5011676;28;20141;-50
2023/10/29 03:03:35;;;;;;;;;;;10.40;59.80;;;5.69;100.00;94276.56;5003668;28;19909;-53
2023/10/29 03:06:08;;;;;;;;;;;10.40;59.90;;;5.67;100.00;94284.00;5024027;28;19920;-52
2023/10/29 03:08:35;;;;;;;;;;;10.30;59.90;;;5.70;100.00;94282.66;5021420;28;19913;-51
2023/10/29 03:11:03;;;;;;;;;;;10.30;59.90;;;5.69;100.00;94273.94;5002332;28;19964;-47
2023/10/29 03:13:29;;;;;;;;;;;10.30;59.90;;;5.66;100.00;94269.19;5005516;28;19909;-50
2023/10/29 03:15:56;;;;;;;;;;;10.20;59.90;;;5.66;100.00;94257.81;5006581;28;19909;-47
2023/10/29 03:18:23;;;;;;;;;;;10.30;60.00;;;5.62;100.00;94240.91;5010010;28;19909;-47
2023/10/29 03:20:49;;;;;;;;;;;10.20;60.00;;;5.57;100.00;94244.34;4999397;28;19909;-46
2023/10/29 03:23:15;;;;;;;;;;;10.20;60.00;;;5.55;100.00;94238.56;4997438;28;19913;-53
2023/10/29 03:25:41;;;;;;;;;;;10.10;60.00;;;5.51;100.00;94237.47;5021932;28;19928;-52
2023/10/29 03:28:06;;;;;;;;;;;10.10;60.10;;;5.45;100.00;94238.53;4997788;28;19913;-53
2023/10/29 03:30:32;;;;;;;;;;;10.10;60.10;;;5.37;100.00;94225.88;5013549;28;19936;-46
2023/10/29 03:32:59;;;;;;;;;;;10.10;60.10;;;5.30;100.00;94234.84;5013993;28;19917;-48
2023/10/29 03:35:27;;;;;;;;;;;10.00;60.00;;;5.33;100.00;94236.19;5017934;28;19914;-52
2023/10/29 03:37:54;;;;;;;;;;;10.00;60.10;;;5.37;100.00;94233.81;5015928;28;20260;-51
2023/10/29 03:40:20;;;;;;;;;;;10.00;60.30;;;5.34;100.00;94222.69;5002789;28;19931;-49
2023/10/29 03:42:46;;;;;;;;;;;10.00;60.30;;;5.37;100.00;94220.59;5000157;28;19909;-51
2023/10/29 03:45:13;;;;;;;;;;;10.00;60.40;;;5.39;100.00;94221.94;5002865;28;19919;-52
2023/10/29 03:47:41;;;;;;;;;;;10.00;60.40;;;5.40;100.00;94214.78;4996743;28;20008;-47
2023/10/29 03:50:07;;;;;;;;;;;9.90;60.50;;;5.40;100.00;94212.16;5011479;28;20379;-49
2023/10/29 03:52:32;;;;;;;;;;;10.00;60.60;;;5.40;100.00;94217.44;5015058;28;19967;-47
2023/10/29 03:54:58;;;;;;;;;;;10.00;60.60;;;5.38;100.00;94217.69;5009022;28;19912;-47
2023/10/29 03:57:24;;;;;;;;;;;10.00;60.70;;;5.38;100.00;94222.97;5020026;28;19963;-46
2023/10/29 03:59:58;;;;;;;;;;;10.00;60.70;;;5.32;100.00;94210.81;5028316;28;20321;-47
2023/10/29 04:02:24;;;;;;;;;;;10.00;60.60;;;5.28;100.00;94212.41;5025427;28;19916;-47
2023/10/29 04:04:49;;;;;;;;;;;10.00;60.60;;;5.28;100.00;94215.03;5027375;28;19913;-46
2023/10/29 04:07:15;;;;;;;;;;;9.90;60.60;;;5.27;100.00;94221.41;5023622;28;19909;-47
2023/10/29 04:09:41;;;;;;;;;;;10.00;60.70;;;5.28;100.00;94226.41;5028755;28;19909;-47
2023/10/29 04:12:07;;;;;;;;;;;9.90;60.70;;;5.30;100.00;94223.50;5015290;28;19968;-48
2023/10/29 04:14:34;;;;;;;;;;;10.00;60.80;;;5.37;100.00;94217.97;5028281;28;19954;-51
2023/10/29 04:16:59;;;;;;;;;;;10.00;60.90;;;5.40;100.00;94202.38;5028638;28;20019;-47
2023/10/29 04:19:25;;;;;;;;;;;10.00;60.90;;;5.42;100.00;94191.53;5021322;28;20091;-47
2023/10/29 04:21:51;;;;;;;;;;;10.00;60.80;;;5.40;100.00;94188.38;5028287;28;20372;-47
2023/10/29 04:24:17;;;;;;;;;;;10.00;60.80;;;5.40;100.00;94180.47;5020632;28;19916;-48
2023/10/29 04:26:43;;;;;;;;;;;10.00;60.80;;;5.40;100.00;94177.81;5019568;28;19978;-46
2023/10/29 04:29:09;;;;;;;;;;;10.00;60.90;;;5.41;100.00;94184.66;5028047;28;20418;-48
2023/10/29 04:31:35;;;;;;;;;;;10.00;60.80;;;5.39;100.00;94177.03;5020281;28;19916;-49
2023/10/29 04:34:00;;;;;;;;;;;10.00;60.90;;;5.40;100.00;94175.19;5028121;28;19909;-49
2023/10/29 04:36:26;;;;;;;;;;;10.00;60.90;;;5.36;100.00;94174.91;5008483;28;19909;-47
2023/10/29 04:38:52;;;;;;;;;;;10.00;61.00;;;5.35;100.00;94175.97;5027997;28;20007;-47
2023/10/29 04:41:18;;;;;;;;;;;10.00;60.90;;;5.34;100.00;94191.00;5021043;28;19909;-49
2023/10/29 04:43:44;;;;;;;;;;;10.00;61.00;;;5.29;100.00;94193.66;5024768;28;20509;-47
2023/10/29 04:46:11;;;;;;;;;;;10.00;61.00;;;5.28;100.00;94189.44;5027973;28;20003;-47
2023/10/29 04:48:41;;;;;;;;;;;9.90;61.00;;;5.24;100.00;94191.03;5020585;28;19909;-46
2023/10/29 04:51:07;;;;;;;;;;;9.90;61.70;;;5.19;100.00;94182.31;5020240;28;19917;-48
2023/10/29 04:53:37;;;;;;;;;;;9.90;61.00;;;5.23;100.00;94180.72;5024621;28;19908;-46
2023/10/29 04:56:04;;;;;;;;;;;9.90;61.00;;;5.30;100.00;94181.25;5023862;28;19909;-50
2023/10/29 04:58:33;;;;;;;;;;;9.90;61.20;;;5.28;100.00;94178.09;5027490;28;19921;-47
2023/10/29 05:00:59;;;;;;;;;;;9.90;61.20;;;5.31;100.00;94173.06;5024167;28;19917;-47
2023/10/29 05:03:27;;;;;;;;;;;9.90;61.30;;;5.34;100.00;94172.53;5027347;28;19909;-47
2023/10/29 05:05:54;;;;;;;;;;;10.00;61.40;;;5.46;100.00;94171.47;5017344;28;19917;-47
2023/10/29 05:08:20;;;;;;;;;;;10.00;61.50;;;5.55;100.00;94159.31;5027608;28;19909;-49
2023/10/29 05:10:46;;;;;;;;;;;10.00;61.60;;;5.56;100.00;94158.25;5016992;28;19935;-49
2023/10/29 05:13:13;;;;;;;;;;;10.10;61.60;;;5.60;100.00;94163.78;5006438;28;20004;-48
2023/10/29 05:15:39;;;;;;;;;;;10.10;61.60;;;5.66;100.00;94173.28;5014293;28;19952;-48
2023/10/29 05:18:05;;;;;;;;;;;10.20;61.60;;;5.70;100.00;94161.94;5006352;28;19913;-49
2023/10/29 05:20:31;;;;;;;;;;;10.20;61.60;;;5.69;100.00;94167.47;5007939;28;19916;-47
2023/10/29 05:22:57;;;;;;;;;;;10.20;61.50;;;5.67;100.00;94174.84;5014129;28;19947;-49
2023/10/29 05:25:23;;;;;;;;;;;10.20;61.40;;;5.63;100.00;94176.47;4998104;28;19910;-51
2023/10/29 05:27:54;;;;;;;;;;;10.20;61.30;;;5.57;100.00;94173.81;5014117;28;19919;-48
2023/10/29 05:30:20;;;;;;;;;;;10.20;61.30;;;5.48;100.00;94170.13;5006454;28;19909;-48
2023/10/29 05:32:46;;;;;;;;;;;10.20;61.20;;;5.44;100.00;94155.09;5012607;28;20007;-50
2023/10/29 05:35:12;;;;;;;;;;;10.10;61.20;;;5.44;100.00;94166.44;5013818;28;20346;-48
2023/10/29 05:37:38;;;;;;;;;;;10.10;61.30;;;5.34;100.00;94161.97;5002253;28;19909;-46
2023/10/29 05:40:07;;;;;;;;;;;10.00;61.20;;;5.37;100.00;94175.72;5011727;28;19916;-47
2023/10/29 05:42:34;;;;;;;;;;;10.00;61.30;;;5.29;100.00;94183.09;4996119;28;20360;-46
2023/10/29 05:45:00;;;;;;;;;;;10.00;62.10;;;5.28;100.00;94164.88;5013704;28;19916;-46
2023/10/29 05:47:26;;;;;;;;;;;9.90;61.30;;;5.24;100.00;94150.63;5013230;28;19970;-47
2023/10/29 05:49:54;;;;;;;;;;;9.90;61.30;;;5.14;100.00;94145.34;5008601;28;20322;-50
2023/10/29 05:52:21;;;;;;;;;;;9.90;61.30;;;5.09;100.00;94151.44;5013474;28;19909;-47
2023/10/29 05:54:47;;;;;;;;;;;9.80;61.30;;;5.04;100.00;94138.22;5000753;28;19934;-48
2023/10/29 05:57:13;;;;;;;;;;;9.80;61.40;;;4.97;100.00;94145.63;5013708;28;19909;-49
2023/10/29 05:59:38;;;;;;;;;;;9.70;61.40;;;4.98;100.00;94160.41;5010567;28;19921;-48
2023/10/29 06:02:04;;;;;;;;;;;9.70;61.50;;;4.93;100.00;94139.31;4994018;28;20364;-50
2023/10/29 06:04:30;;;;;;;;;;;9.70;61.60;;;4.88;100.00;94148.00;5013291;28;19979;-51
2023/10/29 06:06:56;;;;;;;;;;;9.60;61.50;;;4.91;100.00;94170.44;5007905;28;20395;-51
2023/10/29 06:09:22;;;;;;;;;;;9.60;61.60;;;4.94;100.00;94138.22;5013036;28;19909;-51
2023/10/29 06:11:47;;;;;;;;;;;9.60;61.70;;;4.96;100.00;94159.88;5005506;28;19987;-47
2023/10/29 06:14:13;;;;;;;;;;;9.60;61.80;;;5.07;100.00;94187.84;5008366;28;19909;-53
2023/10/29 06:16:39;;;;;;;;;;;9.60;61.90;;;5.12;100.00;94158.03;5013239;28;20011;-50
2023/10/29 06:19:05;;;;;;;;;;;9.70;62.00;;;5.15;100.00;94186.53;5006185;28;19913;-52
2023/10/29 06:21:31;;;;;;;;;;;9.70;62.00;;;5.16;100.00;94161.72;5012286;28;19913;-51
2023/10/29 06:23:57;;;;;;;;;;;9.70;62.00;;;5.26;100.00;94165.13;5007046;28;19909;-51
2023/10/29 06:26:23;;;;;;;;;;;9.80;62.10;;;5.30;100.00;94165.41;5003102;28;19916;-47
2023/10/29 06:28:49;;;;;;;;;;;9.80;62.10;;;5.33;100.00;94175.44;5003233;28;19940;-47
2023/10/29 06:31:15;;;;;;;;;;;9.90;62.10;;;5.35;100.00;94194.44;4996360;28;19949;-51
2023/10/29 06:33:41;;;;;;;;;;;9.90;62.00;;;5.35;100.00;94199.72;5000974;28;20325;-51
2023/10/29 06:36:08;;;;;;;;;;;10.00;61.90;;;5.36;100.00;94205.78;5000259;28;19945;-50
2023/10/29 06:38:35;;;;;;;;;;;10.00;61.90;;;5.37;100.00;94216.09;5011623;28;19960;-51
2023/10/29 06:41:02;;;;;;;;;;;10.00;61.80;;;5.38;100.00;94219.53;5011822;28;20058;-50
2023/10/29 06:43:28;;;;;;;;;;;10.10;61.80;;;5.38;100.00;94233.53;5009832;28;19909;-47
2023/10/29 06:45:53;;;;;;;;;;;10.10;61.80;;;5.42;100.00;94241.72;5011888;28;19916;-45
2023/10/29 06:48:19;;;;;;;;;;;10.10;61.80;;;5.43;100.00;94238.81;5005980;28;19923;-48
2023/10/29 06:50:45;;;;;;;;;;;10.20;61.80;;;5.40;100.00;94236.69;4973127;28;23160;-47
2023/10/29 06:53:11;;;;;;;;;;;10.30;61.80;;;5.45;100.00;94233.25;4958595;28;19918;-49
2023/10/29 06:55:37;;;;;;;;;;;10.30;61.70;;;5.49;100.00;94237.75;4961119;28;19909;-56
2023/10/29 06:58:04;;;;;;;;;;;10.40;61.60;;;5.51;100.00;94224.28;4972550;28;20003;-55
2023/10/29 07:00:31;;;;;;;;;;;10.40;61.50;;;5.57;100.00;94220.56;4964803;28;19914;-50
2023/10/29 07:02:57;;;;;;;;;;;10.50;61.60;;;5.69;100.00;94218.44;4969473;28;19914;-47
2023/10/29 07:05:23;;;;;;;;;;;10.60;61.70;;;5.84;100.00;94224.78;4956325;28;20391;-47
2023/10/29 07:07:48;;;;;;;;;;;10.70;61.80;;;5.94;100.00;94219.50;4964536;28;20398;-56
2023/10/29 07:10:15;;;;;;;;;;;10.80;61.70;;;6.06;100.00;94213.91;4965371;28;19913;-55
2023/10/29 07:12:40;;;;;;;;;;;10.90;61.70;;;6.20;100.00;94228.91;4965355;28;19909;-56
2023/10/29 07:15:09;;;;;;;;;;;11.10;61.80;;;6.36;100.00;94231.50;4972811;28;19917;-46
2023/10/29 07:17:35;;;;;;;;;;;11.20;61.70;;;6.51;100.00;94238.59;4969965;28;20300;-50
2023/10/29 07:20:01;;;;;;;;;;;11.40;61.70;;;6.62;100.00;94240.94;4968881;28;20025;-52
2023/10/29 07:22:27;;;;;;;;;;;11.50;61.60;;;6.77;100.00;94260.44;4972811;28;19964;-53
2023/10/29 07:24:53;;;;;;;;;;;11.60;61.50;;;6.89;100.00;94266.19;4963546;28;20388;-56
2023/10/29 07:27:19;;;;;;;;;;;11.80;61.50;;;6.98;100.00;94255.84;4971053;28;20372;-56
2023/10/29 07:29:44;;;;;;;;;;;11.90;61.30;;;7.09;100.00;94266.09;4968472;28;19914;-52
2023/10/29 07:32:10;;;;;;;;;;;12.10;61.30;;;7.18;100.00;94271.63;4955832;28;19996;-53
2023/10/29 07:34:36;;;;;;;;;;;12.20;61.10;;;7.26;100.00;94278.19;4953558;28;19917;-54
2023/10/29 07:37:02;;;;;;;;;;;12.30;61.00;;;7.33;100.00;94290.06;4953697;28;19909;-56
2023/10/29 07:39:28;;;;;;;;;;;12.40;60.90;;;7.41;100.00;94288.66;4954516;28;19949;-53
2023/10/29 07:41:54;;;;;;;;;;;12.50;60.90;;;7.47;100.00;94286.78;4956976;28;19917;-50
2023/10/29 07:44:22;;;;;;;;;;;12.60;60.80;;;7.52;100.00;94287.53;4971300;28;19910;-55
2023/10/29 07:46:47;;;;;;;;;;;12.70;60.70;;;7.61;100.00;94288.50;4972672;28;20391;-52
2023/10/29 07:49:13;;;;;;;;;;;12.80;60.60;;;7.61;100.00;94269.16;4964357;28;19910;-53
2023/10/29 07:51:39;;;;;;;;;;;12.90;60.40;;;7.77;100.00;94275.94;4972781;28;20296;-51
2023/10/29 07:54:05;;;;;;;;;;;13.00;60.30;;;7.95;100.00;94276.31;4966799;28;19909;-54
2023/10/29 07:56:31;;;;;;;;;;;13.30;60.30;;;8.21;100.00;94269.72;4968925;28;20361;-50
2023/10/29 07:58:57;;;;;;;;;;;13.50;60.10;;;8.48;100.00;94279.00;4968429;28;20000;-50
2023/10/29 08:01:23;;;;;;;;;;;13.80;60.10;;;8.74;100.00;94264.38;4966179;28;20423;-50
2023/10/29 08:03:50;;;;;;;;;;;14.00;60.00;;;9.11;100.00;94270.00;4972447;28;19913;-52
2023/10/29 08:06:16;;;;;;;;;;;14.40;60.00;;;9.45;100.00;94278.53;4968340;28;19910;-56
2023/10/29 08:08:42;;;;;;;;;;;14.70;59.90;;;9.76;100.00;94275.41;4968013;28;20005;-56
2023/10/29 08:11:18;;;;;;;;;;;15.10;59.90;;;10.15;100.00;94279.53;4969270;28;20000;-51
2023/10/29 08:13:44;;;;;;;;;;;15.50;59.70;;;10.51;94.33;94284.25;4964205;28;19910;-49
2023/10/29 08:16:11;;;;;;;;;;;15.90;59.60;;;10.82;90.32;94285.25;4965448;28;19933;-49
2023/10/29 08:18:36;;;;;;;;;;;16.30;59.30;;;11.22;88.08;94282.81;4951558;28;19957;-51
2023/10/29 08:21:03;;;;;;;;;;;16.80;59.10;;;11.59;88.46;94280.91;4954551;28;20380;-55
2023/10/29 08:23:29;;;;;;;;;;;17.20;58.80;;;11.98;87.46;94266.19;4950978;28;19921;-53
2023/10/29 08:25:55;;;;;;;;;;;17.60;58.50;;;12.26;81.98;94266.81;4951337;28;19914;-52
2023/10/29 08:28:22;;;;;;;;;;;18.00;58.20;;;12.50;78.75;94256.56;4951611;28;20440;-49
2023/10/29 08:30:48;;;;;;;;;;;18.30;57.90;;;12.76;76.69;94253.19;4950504;28;19936;-49
2023/10/29 08:33:15;;;;;;;;;;;18.70;57.50;;;12.99;76.56;94261.88;4951013;28;19936;-52
2023/10/29 08:35:44;;;;;;;;;;;19.00;57.10;;;13.32;81.09;94256.16;4951052;28;19914;-52
2023/10/29 08:38:10;;;;;;;;;;;19.40;56.80;;;13.68;82.46;94271.09;4951046;28;20451;-49
2023/10/29 08:40:36;;;;;;;;;;;19.70;56.50;;;14.05;81.31;94269.66;4951052;28;20028;-53
2023/10/29 08:43:05;;;;;;;;;;;20.00;56.30;;;14.38;78.91;94277.91;4948611;28;19964;-52
2023/10/29 08:45:31;;;;;;;;;;;20.30;56.10;;;14.67;75.70;94285.25;4954480;28;19953;-53
2023/10/29 08:47:57;;;;;;;;;;;20.60;56.00;;;14.80;75.71;94292.28;4958648;28;20331;-53
2023/10/29 08:50:23;;;;;;;;;;;20.80;55.70;;;14.87;76.35;94291.78;4955049;28;19910;-52
2023/10/29 08:52:49;;;;;;;;;;;21.00;55.40;;;14.84;77.41;94291.66;4956389;28;19913;-51
2023/10/29 08:55:15;;;;;;;;;;;21.10;55.10;;;14.96;77.32;94289.84;4953489;28;20385;-54
2023/10/29 08:57:41;;;;;;;;;;;21.20;54.90;;;15.02;75.96;94290.47;4956243;28;19914;-50
2023/10/29 09:00:08;;;;;;;;;;;21.30;54.70;;;15.06;74.23;94291.38;4955877;28;19948;-50
2023/10/29 09:02:34;;;;;;;;;;;21.40;54.60;;;15.07;74.19;94282.22;4956211;28;19917;-52
2023/10/29 09:05:01;;;;;;;;;;;21.30;54.40;;;15.18;73.13;94277.28;4955242;28;19910;-54
2023/10/29 09:07:27;;;;;;;;;;;21.40;54.40;;;15.22;72.91;94288.91;4955233;28;19914;-53
2023/10/29 09:09:54;;;;;;;;;;;21.40;54.30;;;15.22;73.38;94273.59;4956285;28;19910;-54
2023/10/29 09:12:21;;;;;;;;;;;21.40;54.90;;;15.27;71.61;94286.06;4955056;28;19952;-54
2023/10/29 09:14:46;;;;;;;;;;;21.30;54.10;;;15.21;72.64;94277.41;4955869;28;20044;-51
2023/10/29 09:17:12;;;;;;;;;;;21.30;54.00;;;15.16;73.29;94271.44;4956069;28;20000;-54
2023/10/29 09:19:38;;;;;;;;;;;21.10;53.90;;;15.02;75.06;94283.19;4954758;28;19921;-58
2023/10/29 09:22:04;;;;;;;;;;;21.00;53.90;;;14.93;74.03;94287.81;4955987;28;20067;-55
2023/10/29 09:24:30;;;;;;;;;;;21.00;53.90;;;14.92;72.78;94288.94;4954751;28;19916;-57
2023/10/29 09:26:56;;;;;;;;;;;20.90;53.80;;;14.79;74.10;94285.38;4956032;28;19910;-56
2023/10/29 09:29:23;;;;;;;;;;;20.80;53.70;;;14.73;74.10;94281.28;4957382;28;19910;-53
2023/10/29 09:31:51;;;;;;;;;;;20.80;53.60;;;14.80;76.81;94272.75;4955834;28;20016;-54
2023/10/29 09:34:18;;;;;;;;;;;20.80;53.70;;;14.85;78.60;94274.44;4953938;28;20003;-53
2023/10/29 09:36:44;;;;;;;;;;;20.80;53.70;;;14.88;80.20;94277.25;4959641;28;19957;-58
2023/10/29 09:39:10;;;;;;;;;;;20.70;53.70;;;14.95;79.93;94285.63;4958372;28;20328;-58
2023/10/29 09:41:38;;;;;;;;;;;20.70;53.70;;;15.01;78.73;94278.94;4954411;28;19917;-56
2023/10/29 09:44:08;;;;;;;;;;;20.70;53.80;;;14.91;75.21;94286.56;4951765;28;20017;-56
2023/10/29 09:46:37;;;;;;;;;;;20.80;53.80;;;15.02;77.87;94283.19;4942613;28;21998;-57
2023/10/29 09:49:04;;;;;;;;;;;20.80;53.70;;;15.14;76.42;94300.50;4957168;28;19920;-55
2023/10/29 09:51:30;;;;;;;;;;;21.00;53.70;;;15.19;75.68;94292.25;4954945;28;20072;-54
2023/10/29 09:53:59;;;;;;;;;;;21.20;53.60;;;15.44;75.11;94303.94;4958451;28;20028;-56
2023/10/29 09:56:26;;;;;;;;;;;21.50;53.40;;;15.79;73.91;94307.19;4963750;28;19943;-53
2023/10/29 09:58:53;;;;;;;;;;;22.00;53.20;;;16.07;71.59;94294.00;4953656;28;20020;-55
2023/10/29 10:01:18;;;;;;;;;;;22.40;53.00;;;16.45;68.34;94295.69;4964511;28;19920;-56
2023/10/29 10:03:45;;;;;;;;;;;22.90;52.70;;;16.89;65.52;94293.31;4974460;28;19910;-54
2023/10/29 10:06:14;;;;;;;;;;;23.40;52.30;;;17.15;63.60;94286.84;4948050;28;19910;-57
2023/10/29 10:08:40;;;;;;;;;;;23.80;52.10;;;17.34;61.56;94285.13;4967147;28;19916;-55
2023/10/29 10:11:24;;;;;;;;;;;24.10;51.70;;;17.63;60.46;94283.28;4974257;28;19917;-54
2023/10/29 10:13:50;;;;;;;;;;;24.30;51.30;;;17.78;59.39;94274.50;4968979;28;19916;-57
2023/10/29 10:16:16;;;;;;;;;;;24.50;51.00;;;17.96;57.74;94279.63;4968847;28;20285;-54
2023/10/29 10:18:57;;;;;;;;;;;24.60;50.80;;;17.93;55.46;94294.56;4960738;28;19918;-55
2023/10/29 10:21:42;;;;;;;;;;;24.60;50.40;;;17.86;55.35;94286.25;4963847;28;19917;-53
2023/10/29 10:24:08;;;;;;;;;;;24.50;50.20;;;17.71;55.85;94285.06;4967770;28;19917;-56
2023/10/29 10:26:37;;;;;;;;;;;24.30;49.90;;;17.69;56.84;94286.53;4973752;28;19910;-51
2023/10/29 10:29:09;;;;;;;;;;;24.20;49.70;;;17.56;56.83;94275.00;4968792;28;19910;-53
2023/10/29 10:31:37;;;;;;;;;;;24.00;49.60;;;17.47;59.81;94274.34;4959292;28;20429;-53
2023/10/29 10:34:15;;;;;;;;;;;24.00;49.60;;;17.53;60.82;94257.59;4972029;28;20402;-54
2023/10/29 10:36:49;;;;;;;;;;;24.20;49.50;;;17.77;60.03;94272.19;4968023;28;20388;-53
2023/10/29 10:39:19;;;;;;;;;;;24.60;49.40;;;17.90;59.28;94257.53;4973819;28;19917;-56
2023/10/29 10:41:47;;;;;;;;;;;25.10;49.10;;;18.21;57.55;94251.44;4968906;28;19921;-56
2023/10/29 10:44:19;;;;;;;;;;;25.50;49.10;;;18.46;55.36;94252.09;4966153;28;20009;-56
2023/10/29 10:46:59;;;;;;;;;;;25.90;48.80;;;18.91;53.67;94242.81;4965436;28;20462;-56
2023/10/29 10:49:26;;;;;;;;;;;26.50;48.50;;;19.23;52.54;94244.69;4965434;28;19910;-57
2023/10/29 10:51:58;;;;;;;;;;;27.00;48.20;;;19.61;51.62;94244.75;4973428;28;20152;-52
2023/10/29 10:54:24;;;;;;;;;;;27.50;47.80;;;19.86;54.13;94247.22;4963873;28;19910;-55
2023/10/29 10:56:53;;;;;;;;;;;27.70;47.50;;;20.17;50.46;94245.50;4962629;28;19910;-57
2023/10/29 10:59:20;;;;;;;;;;;27.70;47.20;;;20.27;48.81;94250.31;4957543;28;19922;-55
2023/10/29 11:01:48;;;;;;;;;;;27.80;47.00;;;20.07;47.32;94255.75;4967657;28;19910;-55
2023/10/29 11:04:15;;;;;;;;;;;27.70;46.70;;;19.91;49.60;94273.97;4956825;28;20218;-53
2023/10/29 11:06:43;;;;;;;;;;;27.50;46.20;;;19.85;51.04;94276.16;4963424;28;19910;-52
2023/10/29 11:09:14;;;;;;;;;;;27.40;46.00;;;19.92;49.45;94272.03;4972702;28;19913;-54
2023/10/29 11:11:51;;;;;;;;;;;27.30;45.80;;;20.11;48.33;94262.00;4971645;28;19914;-53
2023/10/29 11:14:19;;;;;;;;;;;27.50;45.80;;;20.06;45.09;94256.88;4971023;28;19963;-57
2023/10/29 11:16:58;;;;;;;;;;;27.70;45.40;;;20.01;43.06;94249.06;4973192;28;19917;-52